createdAt,value
2023-01-18T00:01:16.771Z,0.70
2023-01-18T00:03:44.070Z,0.70
2023-01-18T00:06:12.612Z,0.70
2023-01-18T00:08:40.462Z,0.70
2023-01-18T00:11:13.697Z,0.80
2023-01-18T00:13:41.141Z,0.80
2023-01-18T00:16:12.477Z,0.80
2023-01-18T00:18:40.116Z,0.80
2023-01-18T00:21:10.594Z,0.70
2023-01-18T00:23:38.281Z,0.70
2023-01-18T00:26:08.142Z,0.70
2023-01-18T00:28:36.104Z,0.70
2023-01-18T00:31:11.788Z,0.70
2023-01-18T00:33:39.477Z,0.70
2023-01-18T00:36:06.923Z,0.70
2023-01-18T00:38:34.069Z,0.70
2023-01-18T00:41:01.359Z,0.70
2023-01-18T00:43:40.514Z,0.60
2023-01-18T00:46:22.661Z,0.60
2023-01-18T00:48:51.135Z,0.70
2023-01-18T00:51:23.746Z,0.70
2023-01-18T00:53:51.345Z,0.60
2023-01-18T00:56:21.942Z,0.60
2023-01-18T00:58:49.774Z,0.60
2023-01-18T01:01:17.430Z,0.60
2023-01-18T01:04:03.018Z,0.60
2023-01-18T01:06:46.975Z,0.60
2023-01-18T01:09:16.016Z,0.60
2023-01-18T01:12:02.630Z,0.60
2023-01-18T01:14:48.519Z,0.60
2023-01-18T01:17:34.457Z,0.60
2023-01-18T01:20:20.198Z,0.60
2023-01-18T01:23:06.137Z,0.60
2023-01-18T01:25:52.109Z,0.60
2023-01-18T01:28:19.376Z,0.60
2023-01-18T01:30:46.670Z,0.60
2023-01-18T01:33:14.168Z,0.60
2023-01-18T01:35:41.229Z,0.60
2023-01-18T01:38:08.454Z,0.60
2023-01-18T01:40:35.686Z,0.60
2023-01-18T01:43:02.997Z,0.60
2023-01-18T01:45:32.493Z,0.60
2023-01-18T01:48:00.386Z,0.50
2023-01-18T01:50:33.910Z,0.60
2023-01-18T01:53:01.894Z,0.60
2023-01-18T01:55:35.679Z,0.60
2023-01-18T01:58:11.358Z,0.50
2023-01-18T02:00:38.771Z,0.60
2023-01-18T02:03:13.029Z,0.60
2023-01-18T02:06:06.440Z,0.50
2023-01-18T02:08:33.971Z,0.50
2023-01-18T02:11:01.186Z,0.50
2023-01-18T02:13:28.554Z,0.50
2023-01-18T02:16:17.937Z,0.50
2023-01-18T02:19:16.924Z,0.50
2023-01-18T02:21:56.762Z,0.50
2023-01-18T02:25:00.384Z,0.40
2023-01-18T02:28:17.189Z,0.40
2023-01-18T02:30:53.900Z,0.30
2023-01-18T02:33:31.451Z,0.20
2023-01-18T02:36:02.408Z,0.20
2023-01-18T02:38:38.757Z,0.20
2023-01-18T02:41:52.382Z,0.20
2023-01-18T02:44:46.348Z,0.20
2023-01-18T02:47:13.973Z,0.20
2023-01-18T02:49:41.076Z,0.20
2023-01-18T02:52:08.936Z,0.20
2023-01-18T02:54:40.099Z,0.20
2023-01-18T02:57:12.497Z,0.20
2023-01-18T02:59:48.457Z,0.20
2023-01-18T03:02:22.190Z,0.20
2023-01-18T03:04:56.515Z,0.20
2023-01-18T03:07:32.220Z,0.10
2023-01-18T03:10:05.676Z,0.10
2023-01-18T03:12:54.683Z,0.10
2023-01-18T03:15:22.146Z,0.10
2023-01-18T03:17:53.914Z,0.00
2023-01-18T03:20:29.334Z,0.00
2023-01-18T03:23:27.271Z,0.00
2023-01-18T03:25:57.395Z,0.00
2023-01-18T03:28:49.053Z,0.00
2023-01-18T03:31:50.364Z,0.00
2023-01-18T03:34:33.271Z,0.00
2023-01-18T03:37:05.173Z,0.00
2023-01-18T03:39:54.950Z,-0.10
2023-01-18T03:42:44.170Z,-0.10
2023-01-18T03:45:29.020Z,-0.10
2023-01-18T03:47:56.208Z,-0.10
2023-01-18T03:50:33.236Z,-0.10
2023-01-18T03:53:06.586Z,-0.20
2023-01-18T03:56:08.477Z,-0.30
2023-01-18T03:58:36.918Z,-0.30
2023-01-18T04:01:05.217Z,-0.40
2023-01-18T04:03:34.006Z,-0.30
2023-01-18T04:06:03.373Z,-0.30
2023-01-18T04:08:31.173Z,-0.30
2023-01-18T04:10:58.544Z,-0.30
2023-01-18T04:13:25.769Z,-0.30
2023-01-18T04:15:53.100Z,-0.30
2023-01-18T04:18:20.462Z,-0.30
2023-01-18T04:20:55.266Z,-0.30
2023-01-18T04:23:23.825Z,-0.30
2023-01-18T04:25:51.576Z,-0.30
2023-01-18T04:28:25.577Z,-0.40
2023-01-18T04:30:57.144Z,-0.40
2023-01-18T04:33:26.997Z,-0.40
2023-01-18T04:35:54.548Z,-0.40
2023-01-18T04:38:22.015Z,-0.40
2023-01-18T04:40:51.204Z,-0.40
2023-01-18T04:43:18.681Z,-0.50
2023-01-18T04:45:54.695Z,-0.50
2023-01-18T04:48:22.783Z,-0.50
2023-01-18T04:50:50.500Z,-0.50
2023-01-18T04:53:18.728Z,-0.50
2023-01-18T04:55:46.593Z,-0.50
2023-01-18T04:58:13.903Z,-0.50
2023-01-18T05:00:41.342Z,-0.60
2023-01-18T05:03:10.091Z,-0.60
2023-01-18T05:05:37.576Z,-0.60
2023-01-18T05:08:04.692Z,-0.60
2023-01-18T05:10:33.815Z,-0.60
2023-01-18T05:13:01.408Z,-0.60
2023-01-18T05:15:28.932Z,-0.60
2023-01-18T05:17:56.182Z,-0.60
2023-01-18T05:20:23.425Z,-0.60
2023-01-18T05:22:50.572Z,-0.60
2023-01-18T05:25:17.879Z,-0.70
2023-01-18T05:27:45.185Z,-0.70
2023-01-18T05:30:12.807Z,-0.70
2023-01-18T05:32:40.042Z,-0.70
2023-01-18T05:35:07.712Z,-0.70
2023-01-18T05:37:34.870Z,-0.80
2023-01-18T05:40:02.000Z,-0.80
2023-01-18T05:42:29.287Z,-0.80
2023-01-18T05:44:56.417Z,-0.80
2023-01-18T05:47:23.606Z,-0.80
2023-01-18T05:49:50.809Z,-0.90
2023-01-18T05:52:18.132Z,-0.90
2023-01-18T05:54:45.405Z,-0.90
2023-01-18T05:57:12.658Z,-1.00
2023-01-18T05:59:39.763Z,-1.00
2023-01-18T06:02:07.044Z,-1.00
2023-01-18T06:04:34.317Z,-1.00
2023-01-18T06:07:01.549Z,-1.00
2023-01-18T06:09:31.910Z,-1.00
2023-01-18T06:11:59.270Z,-1.10
2023-01-18T06:14:29.681Z,-1.20
2023-01-18T06:16:59.555Z,-1.20
2023-01-18T06:19:26.576Z,-1.30
2023-01-18T06:21:54.773Z,-1.40
2023-01-18T06:24:22.170Z,-1.40
2023-01-18T06:26:49.488Z,-1.40
2023-01-18T06:29:17.027Z,-1.30
2023-01-18T06:31:44.369Z,-1.30
2023-01-18T06:34:11.657Z,-1.30
2023-01-18T06:36:39.741Z,-1.30
2023-01-18T06:39:07.694Z,-1.20
2023-01-18T06:41:35.075Z,-1.20
2023-01-18T06:44:02.625Z,-1.20
2023-01-18T06:46:29.939Z,-1.20
2023-01-18T06:48:57.339Z,-1.20
2023-01-18T06:51:24.983Z,-1.10
2023-01-18T06:53:52.426Z,-1.10
2023-01-18T06:56:19.630Z,-1.10
2023-01-18T06:58:46.929Z,-1.10
2023-01-18T07:01:14.410Z,-1.10
2023-01-18T07:03:41.675Z,-1.10
2023-01-18T07:06:08.871Z,-1.10
2023-01-18T07:08:36.082Z,-1.10
2023-01-18T07:11:11.411Z,-1.10
2023-01-18T07:13:43.913Z,-1.10
2023-01-18T07:16:18.709Z,-1.10
2023-01-18T07:18:48.500Z,-1.10
2023-01-18T07:21:18.341Z,-1.10
2023-01-18T07:23:45.709Z,-1.10
2023-01-18T07:26:18.317Z,-1.10
2023-01-18T07:28:47.000Z,-1.10
2023-01-18T07:31:15.459Z,-1.10
2023-01-18T07:33:42.652Z,-1.20
2023-01-18T07:36:11.121Z,-1.30
2023-01-18T07:38:39.507Z,-1.40
2023-01-18T07:41:14.580Z,-1.50
2023-01-18T07:43:44.053Z,-1.40
2023-01-18T07:46:13.763Z,-1.40
2023-01-18T07:48:49.113Z,-1.40
2023-01-18T07:51:16.641Z,-1.30
2023-01-18T07:53:44.840Z,-1.30
2023-01-18T07:56:17.589Z,-1.30
2023-01-18T07:58:45.794Z,-1.30
2023-01-18T08:01:16.491Z,-1.20
2023-01-18T08:03:45.565Z,-1.20
2023-01-18T08:06:17.411Z,-1.20
2023-01-18T08:08:44.952Z,-1.20
2023-01-18T08:11:12.781Z,-1.20
2023-01-18T08:13:40.122Z,-1.20
2023-01-18T08:16:09.268Z,-1.20
2023-01-18T08:18:36.782Z,-1.20
2023-01-18T08:21:09.071Z,-1.10
2023-01-18T08:23:37.782Z,-1.10
2023-01-18T08:26:06.157Z,-1.10
2023-01-18T08:28:33.659Z,-1.10
2023-01-18T08:31:13.226Z,-1.10
2023-01-18T08:33:43.138Z,-1.10
2023-01-18T08:36:12.688Z,-1.20
2023-01-18T08:38:40.400Z,-1.20
2023-01-18T08:41:07.928Z,-1.10
2023-01-18T08:43:35.442Z,-1.10
2023-01-18T08:46:02.729Z,-1.20
2023-01-18T08:48:30.768Z,-1.30
2023-01-18T08:51:02.983Z,-1.30
2023-01-18T08:53:31.374Z,-1.40
2023-01-18T08:55:58.497Z,-1.40
2023-01-18T08:58:25.841Z,-1.30
2023-01-18T09:00:54.290Z,-1.20
2023-01-18T09:03:23.041Z,-1.20
2023-01-18T09:05:50.276Z,-1.20
2023-01-18T09:08:19.110Z,-1.10
2023-01-18T09:10:46.784Z,-1.00
2023-01-18T09:13:15.490Z,-1.00
2023-01-18T09:15:42.541Z,-0.90
2023-01-18T09:18:09.910Z,-0.90
2023-01-18T09:20:37.094Z,-0.90
2023-01-18T09:23:08.941Z,-0.90
2023-01-18T09:25:37.312Z,-0.90
2023-01-18T09:28:05.293Z,-0.80
2023-01-18T09:30:33.210Z,-0.80
2023-01-18T09:33:01.389Z,-0.80
2023-01-18T09:35:29.250Z,-0.70
2023-01-18T09:37:57.435Z,-0.70
2023-01-18T09:40:36.115Z,-0.70
2023-01-18T09:43:03.686Z,-0.70
2023-01-18T09:45:35.653Z,-0.70
2023-01-18T09:48:12.357Z,-0.60
2023-01-18T09:50:45.240Z,-0.60
2023-01-18T09:53:46.513Z,-0.60
2023-01-18T09:56:22.435Z,-0.60
2023-01-18T09:59:21.331Z,-0.50
2023-01-18T10:01:50.720Z,-0.50
2023-01-18T10:04:29.832Z,-0.50
2023-01-18T10:07:12.833Z,-0.40
2023-01-18T10:09:45.279Z,-0.40
2023-01-18T10:12:22.122Z,-0.40
2023-01-18T10:15:02.425Z,-0.30
2023-01-18T10:17:40.067Z,-0.30
2023-01-18T10:20:22.549Z,-0.20
2023-01-18T10:23:14.678Z,-0.20
2023-01-18T10:26:02.879Z,-0.20
2023-01-18T10:29:02.389Z,-0.10
2023-01-18T10:31:58.867Z,-0.10
2023-01-18T10:34:33.218Z,0.00
2023-01-18T10:37:16.371Z,0.00
2023-01-18T10:40:01.006Z,0.00
2023-01-18T10:42:52.775Z,0.00
2023-01-18T10:45:24.194Z,0.10
2023-01-18T10:47:53.573Z,0.20
2023-01-18T10:50:37.614Z,0.20
2023-01-18T10:53:23.701Z,0.30
2023-01-18T10:56:00.355Z,0.30
2023-01-18T10:58:41.171Z,0.40
2023-01-18T11:01:33.831Z,0.40
2023-01-18T11:04:16.969Z,0.40
2023-01-18T11:06:53.935Z,0.50
2023-01-18T11:09:48.734Z,0.50
2023-01-18T11:12:38.459Z,0.60
2023-01-18T11:15:15.063Z,0.60
2023-01-18T11:17:58.457Z,0.60
2023-01-18T11:20:30.877Z,0.60
2023-01-18T11:23:05.091Z,0.70
2023-01-18T11:26:04.784Z,0.70
2023-01-18T11:28:59.434Z,0.70
2023-01-18T11:31:30.728Z,0.80
2023-01-18T11:34:04.526Z,0.80
2023-01-18T11:36:41.869Z,0.90
2023-01-18T11:39:37.075Z,0.90
2023-01-18T11:42:25.366Z,1.00
2023-01-18T11:45:07.463Z,1.00
2023-01-18T11:47:57.646Z,1.10
2023-01-18T11:50:34.678Z,1.10
2023-01-18T11:53:20.466Z,1.20
2023-01-18T11:56:06.537Z,1.20
2023-01-18T11:58:35.997Z,1.20
2023-01-18T12:01:33.973Z,1.20
2023-01-18T12:04:12.111Z,1.20
2023-01-18T12:06:55.317Z,1.30
2023-01-18T12:09:51.632Z,1.30
2023-01-18T12:12:26.029Z,1.30
2023-01-18T12:15:24.742Z,1.40
2023-01-18T12:18:18.106Z,1.40
2023-01-18T12:21:13.817Z,1.50
2023-01-18T12:24:25.393Z,1.50
2023-01-18T12:26:55.796Z,1.50
2023-01-18T12:29:32.585Z,1.50
2023-01-18T12:32:06.482Z,1.60
2023-01-18T12:34:54.155Z,1.60
2023-01-18T12:37:29.289Z,1.60
2023-01-18T12:40:18.168Z,1.70
2023-01-18T12:43:10.257Z,1.70
2023-01-18T12:46:05.895Z,1.70
2023-01-18T12:48:57.212Z,1.70
2023-01-18T12:51:28.316Z,1.70
2023-01-18T12:54:07.092Z,1.80
2023-01-18T12:56:45.806Z,1.80
2023-01-18T12:59:34.233Z,1.80
2023-01-18T13:02:35.454Z,1.80
2023-01-18T13:05:44.178Z,1.80
2023-01-18T13:08:23.969Z,1.90
2023-01-18T13:10:52.210Z,1.90
2023-01-18T13:13:27.077Z,1.90
2023-01-18T13:16:01.240Z,1.90
2023-01-18T13:18:42.627Z,1.90
2023-01-18T13:21:25.481Z,1.90
2023-01-18T13:24:16.880Z,1.90
2023-01-18T13:26:44.368Z,1.90
2023-01-18T13:29:28.597Z,2.00
2023-01-18T13:31:57.617Z,2.00
2023-01-18T13:34:28.921Z,2.00
2023-01-18T13:37:12.927Z,2.00
2023-01-18T13:39:49.176Z,2.00
2023-01-18T13:42:22.526Z,2.00
2023-01-18T13:44:51.365Z,2.00
2023-01-18T13:47:41.882Z,2.00
2023-01-18T13:50:40.324Z,2.00
2023-01-18T13:53:13.796Z,2.00
2023-01-18T13:55:44.637Z,2.00
2023-01-18T13:58:39.184Z,2.00
2023-01-18T14:01:19.954Z,2.10
2023-01-18T14:03:51.485Z,2.00
2023-01-18T14:06:34.464Z,2.00
2023-01-18T14:09:11.401Z,2.00
2023-01-18T14:11:46.066Z,2.00
2023-01-18T14:14:16.512Z,2.00
2023-01-18T14:16:57.885Z,2.00
2023-01-18T14:19:27.812Z,2.00
2023-01-18T14:22:19.837Z,2.00
2023-01-18T14:25:13.502Z,2.00
2023-01-18T14:27:47.081Z,2.00
2023-01-18T14:30:31.606Z,2.00
2023-01-18T14:33:06.016Z,2.00
2023-01-18T14:35:33.393Z,2.00
2023-01-18T14:38:17.797Z,2.00
2023-01-18T14:40:48.616Z,2.00
2023-01-18T14:43:26.750Z,1.90
2023-01-18T14:46:05.273Z,1.90
2023-01-18T14:48:35.036Z,1.90
2023-01-18T14:51:05.236Z,1.90
2023-01-18T14:53:41.084Z,1.90
2023-01-18T14:56:14.207Z,1.90
2023-01-18T14:58:55.977Z,1.90
2023-01-18T15:01:38.714Z,1.90
2023-01-18T15:04:18.677Z,1.90
2023-01-18T15:06:50.309Z,1.80
2023-01-18T15:09:21.566Z,1.80
2023-01-18T15:11:50.021Z,1.80
2023-01-18T15:14:20.855Z,1.80
2023-01-18T15:16:51.443Z,1.80
2023-01-18T15:19:25.401Z,1.70
2023-01-18T15:21:52.860Z,1.70
2023-01-18T15:24:25.110Z,1.70
2023-01-18T15:26:56.424Z,1.70
2023-01-18T15:29:26.574Z,1.70
2023-01-18T15:31:59.795Z,1.70
2023-01-18T15:34:31.158Z,1.70
2023-01-18T15:37:01.115Z,1.70
2023-01-18T15:39:28.732Z,1.60
2023-01-18T15:41:57.981Z,1.60
2023-01-18T15:44:48.185Z,1.50
2023-01-18T15:47:24.824Z,1.50
2023-01-18T15:49:54.629Z,1.50
2023-01-18T15:52:46.858Z,1.50
2023-01-18T15:55:28.450Z,1.40
2023-01-18T15:58:05.892Z,1.40
2023-01-18T16:00:44.326Z,1.30
2023-01-18T16:03:26.660Z,1.30
2023-01-18T16:06:12.084Z,1.30
2023-01-18T16:09:00.696Z,1.30
2023-01-18T16:11:41.387Z,1.20
2023-01-18T16:14:34.647Z,1.20
2023-01-18T16:17:10.944Z,1.10
2023-01-18T16:19:45.218Z,1.10
2023-01-18T16:22:25.847Z,1.10
2023-01-18T16:25:29.595Z,1.00
2023-01-18T16:28:00.625Z,1.00
2023-01-18T16:30:38.999Z,1.00
2023-01-18T16:33:19.270Z,0.90
2023-01-18T16:35:46.858Z,0.90
2023-01-18T16:38:15.935Z,0.90
2023-01-18T16:40:45.977Z,0.80
2023-01-18T16:43:19.279Z,0.80
2023-01-18T16:45:48.566Z,0.80
2023-01-18T16:48:19.153Z,0.80
2023-01-18T16:50:47.168Z,0.70
2023-01-18T16:53:14.510Z,0.70
2023-01-18T16:55:44.336Z,0.70
2023-01-18T16:58:16.091Z,0.70
2023-01-18T17:00:55.014Z,0.60
2023-01-18T17:03:30.578Z,0.60
2023-01-18T17:05:57.851Z,0.60
2023-01-18T17:08:25.148Z,0.50
2023-01-18T17:10:52.684Z,0.50
2023-01-18T17:13:22.997Z,0.50
2023-01-18T17:15:52.238Z,0.50
2023-01-18T17:18:24.098Z,0.40
2023-01-18T17:20:51.818Z,0.40
2023-01-18T17:23:19.619Z,0.40
2023-01-18T17:25:47.202Z,0.40
2023-01-18T17:28:16.282Z,0.40
2023-01-18T17:30:46.565Z,0.40
2023-01-18T17:33:19.679Z,0.30
2023-01-18T17:35:47.831Z,0.30
2023-01-18T17:38:23.193Z,0.30
2023-01-18T17:40:53.004Z,0.30
2023-01-18T17:43:31.983Z,0.30
2023-01-18T17:46:02.391Z,0.20
2023-01-18T17:48:29.717Z,0.20
2023-01-18T17:50:57.096Z,0.10
2023-01-18T17:53:24.262Z,0.10
2023-01-18T17:55:51.356Z,0.00
2023-01-18T17:58:18.690Z,0.00
2023-01-18T18:00:45.789Z,0.00
2023-01-18T18:03:13.547Z,0.00
2023-01-18T18:05:42.085Z,0.00
2023-01-18T18:08:09.817Z,0.00
2023-01-18T18:10:37.174Z,-0.10
2023-01-18T18:13:04.447Z,-0.10
2023-01-18T18:15:31.798Z,-0.10
2023-01-18T18:17:59.161Z,-0.10
2023-01-18T18:20:26.243Z,-0.20
2023-01-18T18:22:53.515Z,-0.20
2023-01-18T18:25:20.608Z,-0.20
2023-01-18T18:27:48.072Z,-0.20
2023-01-18T18:30:17.964Z,-0.20
2023-01-18T18:32:45.282Z,-0.30
2023-01-18T18:35:24.293Z,-0.30
2023-01-18T18:37:53.877Z,-0.30
2023-01-18T18:40:21.463Z,-0.40
2023-01-18T18:43:01.315Z,-0.40
2023-01-18T18:45:31.023Z,-0.40
2023-01-18T18:47:58.510Z,-0.40
2023-01-18T18:50:25.867Z,-0.40
2023-01-18T18:52:53.415Z,-0.40
2023-01-18T18:55:20.985Z,-0.50
2023-01-18T18:57:53.802Z,-0.50
2023-01-18T19:00:21.245Z,-0.50
2023-01-18T19:02:48.419Z,-0.50
2023-01-18T19:05:16.583Z,-0.50
2023-01-18T19:07:44.525Z,-0.50
2023-01-18T19:10:13.625Z,-0.50
2023-01-18T19:12:41.869Z,-0.50
2023-01-18T19:15:09.420Z,-0.50
2023-01-18T19:17:37.846Z,-0.60
2023-01-18T19:20:06.257Z,-0.60
2023-01-18T19:22:33.371Z,-0.70
2023-01-18T19:25:02.213Z,-0.70
2023-01-18T19:27:30.970Z,-0.70
2023-01-18T19:29:58.444Z,-0.70
2023-01-18T19:32:27.496Z,-0.60
2023-01-18T19:34:54.696Z,-0.60
2023-01-18T19:37:21.927Z,-0.60
2023-01-18T19:39:49.493Z,-0.60
2023-01-18T19:42:16.696Z,-0.60
2023-01-18T19:44:44.019Z,-0.60
2023-01-18T19:47:11.616Z,-0.60
2023-01-18T19:49:43.048Z,-0.60
2023-01-18T19:52:10.216Z,-0.60
2023-01-18T19:54:37.534Z,-0.60
2023-01-18T19:57:04.575Z,-0.60
2023-01-18T19:59:31.692Z,-0.60
2023-01-18T20:01:59.129Z,-0.60
2023-01-18T20:04:26.486Z,-0.60
2023-01-18T20:06:53.822Z,-0.60
2023-01-18T20:09:25.029Z,-0.60
2023-01-18T20:11:56.681Z,-0.60
2023-01-18T20:14:30.659Z,-0.60
2023-01-18T20:17:03.560Z,-0.60
2023-01-18T20:19:30.827Z,-0.60
2023-01-18T20:21:58.267Z,-0.60
2023-01-18T20:24:25.627Z,-0.60
2023-01-18T20:26:53.491Z,-0.60
2023-01-18T20:29:20.823Z,-0.60
2023-01-18T20:31:50.220Z,-0.60
2023-01-18T20:34:17.668Z,-0.60
2023-01-18T20:36:46.497Z,-0.60
2023-01-18T20:39:13.903Z,-0.70
2023-01-18T20:41:41.467Z,-0.70
2023-01-18T20:44:11.341Z,-0.60
2023-01-18T20:46:39.024Z,-0.70
2023-01-18T20:49:06.292Z,-0.70
2023-01-18T20:51:34.050Z,-0.70
2023-01-18T20:54:02.644Z,-0.70
2023-01-18T20:56:32.112Z,-0.70
2023-01-18T20:58:59.744Z,-0.70
2023-01-18T21:01:33.218Z,-0.70
2023-01-18T21:04:03.063Z,-0.70
2023-01-18T21:06:30.687Z,-0.70
2023-01-18T21:08:59.715Z,-0.70
2023-01-18T21:11:27.351Z,-0.70
2023-01-18T21:13:55.676Z,-0.70
2023-01-18T21:16:23.696Z,-0.70
2023-01-18T21:18:52.875Z,-0.70
2023-01-18T21:21:20.621Z,-0.70
2023-01-18T21:23:47.823Z,-0.70
2023-01-18T21:26:15.336Z,-0.70
2023-01-18T21:28:42.618Z,-0.70
2023-01-18T21:31:10.547Z,-0.70
2023-01-18T21:33:41.251Z,-0.70
2023-01-18T21:36:12.924Z,-0.70
2023-01-18T21:38:40.295Z,-0.70
2023-01-18T21:41:25.846Z,-0.70
2023-01-18T21:44:12.588Z,-0.70
2023-01-18T21:46:45.962Z,-0.80
2023-01-18T21:49:47.134Z,-0.80
2023-01-18T21:52:40.982Z,-0.80
2023-01-18T21:55:08.631Z,-0.80
2023-01-18T21:57:36.933Z,-0.80
2023-01-18T22:00:05.351Z,-0.80
2023-01-18T22:02:33.445Z,-0.80
2023-01-18T22:05:01.657Z,-0.80
2023-01-18T22:07:30.380Z,-0.80
2023-01-18T22:10:05.107Z,-0.80
2023-01-18T22:12:35.792Z,-0.80
2023-01-18T22:15:07.144Z,-0.80
2023-01-18T22:17:34.502Z,-0.80
2023-01-18T22:20:02.231Z,-0.80
2023-01-18T22:22:29.529Z,-0.80
2023-01-18T22:24:57.382Z,-0.80
2023-01-18T22:27:24.830Z,-0.80
2023-01-18T22:29:51.948Z,-0.80
2023-01-18T22:32:19.219Z,-0.80
2023-01-18T22:34:46.463Z,-0.80
2023-01-18T22:37:13.789Z,-0.80
2023-01-18T22:39:41.129Z,-0.80
2023-01-18T22:42:08.401Z,-0.70
2023-01-18T22:44:35.690Z,-0.70
2023-01-18T22:47:03.279Z,-0.70
2023-01-18T22:49:30.521Z,-0.70
2023-01-18T22:51:58.040Z,-0.60
2023-01-18T22:54:25.325Z,-0.60
2023-01-18T22:56:52.739Z,-0.60
2023-01-18T22:59:20.221Z,-0.60
2023-01-18T23:01:47.445Z,-0.50
2023-01-18T23:04:14.633Z,-0.50
2023-01-18T23:06:50.862Z,-0.60
2023-01-18T23:09:18.670Z,-0.50
2023-01-18T23:11:47.831Z,-0.50
2023-01-18T23:14:33.768Z,-0.50
2023-01-18T23:17:19.745Z,-0.50
2023-01-18T23:19:47.259Z,-0.40
2023-01-18T23:22:14.509Z,-0.40
2023-01-18T23:24:41.744Z,-0.40
2023-01-18T23:27:12.650Z,-0.40
2023-01-18T23:29:40.144Z,-0.40
2023-01-18T23:32:08.075Z,-0.40
2023-01-18T23:34:35.764Z,-0.40
2023-01-18T23:37:03.083Z,-0.40
2023-01-18T23:39:48.763Z,-0.40
2023-01-18T23:42:34.535Z,-0.40
2023-01-18T23:45:20.238Z,-0.40
2023-01-18T23:48:05.956Z,-0.40
2023-01-18T23:50:51.756Z,-0.40
2023-01-18T23:53:37.509Z,-0.40
2023-01-18T23:56:04.695Z,-0.40
2023-01-18T23:58:32.028Z,-0.30
